sensor_id;sensor_type;location;lat;lon;timestamp;pressure;altitude;pressure_sealevel;temperature;humidity
52957;BME280;38819;42.692;23.342;2023-05-09T00:01:32;95578.84;;;14.89;73.06
52957;BME280;38819;42.692;23.342;2023-05-09T00:03:59;95581.53;;;14.80;73.20
52957;BME280;38819;42.692;23.342;2023-05-09T00:06:25;95582.13;;;14.77;73.18
52957;BME280;38819;42.692;23.342;2023-05-09T00:08:52;95573.72;;;14.88;72.50
52957;BME280;38819;42.692;23.342;2023-05-09T00:11:17;95572.44;;;14.85;72.71
52957;BME280;38819;42.692;23.342;2023-05-09T00:13:43;95572.53;;;14.80;73.79
52957;BME280;38819;42.692;23.342;2023-05-09T00:16:09;95579.72;;;14.76;73.61
52957;BME280;38819;42.692;23.342;2023-05-09T00:18:35;95575.91;;;14.77;73.67
52957;BME280;38819;42.692;23.342;2023-05-09T00:21:01;95581.13;;;14.73;72.60
52957;BME280;38819;42.692;23.342;2023-05-09T00:23:28;95580.66;;;14.71;71.82
52957;BME280;38819;42.692;23.342;2023-05-09T00:25:53;95567.53;;;14.73;71.91
52957;BME280;38819;42.692;23.342;2023-05-09T00:28:19;95564.03;;;14.73;71.82
52957;BME280;38819;42.692;23.342;2023-05-09T00:30:44;95562.44;;;14.72;71.70
52957;BME280;38819;42.692;23.342;2023-05-09T00:33:10;95559.66;;;14.63;72.18
52957;BME280;38819;42.692;23.342;2023-05-09T00:35:35;95562.63;;;14.75;71.71
52957;BME280;38819;42.692;23.342;2023-05-09T00:38:01;95564.50;;;14.75;71.40
52957;BME280;38819;42.692;23.342;2023-05-09T00:40:26;95572.53;;;14.80;71.24
52957;BME280;38819;42.692;23.342;2023-05-09T00:42:51;95562.63;;;14.75;71.15
52957;BME280;38819;42.692;23.342;2023-05-09T00:45:17;95560.88;;;14.79;71.04
52957;BME280;38819;42.692;23.342;2023-05-09T00:47:42;95568.25;;;14.79;71.25
52957;BME280;38819;42.692;23.342;2023-05-09T00:50:08;95564.72;;;14.78;72.36
52957;BME280;38819;42.692;23.342;2023-05-09T00:52:35;95559.91;;;14.75;73.14
52957;BME280;38819;42.692;23.342;2023-05-09T00:55:01;95560.75;;;14.85;72.72
52957;BME280;38819;42.692;23.342;2023-05-09T00:57:26;95560.56;;;14.81;71.84
52957;BME280;38819;42.692;23.342;2023-05-09T00:59:52;95556.66;;;14.73;72.58
52957;BME280;38819;42.692;23.342;2023-05-09T01:02:17;95559.59;;;14.77;71.36
52957;BME280;38819;42.692;23.342;2023-05-09T01:04:44;95558.31;;;14.83;72.63
52957;BME280;38819;42.692;23.342;2023-05-09T01:07:16;95557.22;;;14.84;72.57
52957;BME280;38819;42.692;23.342;2023-05-09T01:12:48;95554.59;;;14.70;72.45
52957;BME280;38819;42.692;23.342;2023-05-09T01:15:42;95547.34;;;14.66;72.45
52957;BME280;38819;42.692;23.342;2023-05-09T01:20:43;95547.72;;;14.73;72.29
52957;BME280;38819;42.692;23.342;2023-05-09T01:23:35;95556.66;;;14.73;71.89
52957;BME280;38819;42.692;23.342;2023-05-09T01:31:51;95552.84;;;14.74;71.75
52957;BME280;38819;42.692;23.342;2023-05-09T01:34:18;95554.47;;;14.75;71.52
52957;BME280;38819;42.692;23.342;2023-05-09T01:36:46;95564.94;;;14.68;71.38
52957;BME280;38819;42.692;23.342;2023-05-09T01:39:16;95557.00;;;14.72;71.42
52957;BME280;38819;42.692;23.342;2023-05-09T01:41:42;95560.22;;;14.74;70.71
52957;BME280;38819;42.692;23.342;2023-05-09T01:44:10;95568.06;;;14.75;70.52
52957;BME280;38819;42.692;23.342;2023-05-09T01:46:36;95566.75;;;14.73;70.80
52957;BME280;38819;42.692;23.342;2023-05-09T01:49:02;95557.66;;;14.77;70.53
52957;BME280;38819;42.692;23.342;2023-05-09T01:51:29;95571.25;;;14.77;70.49
52957;BME280;38819;42.692;23.342;2023-05-09T01:53:56;95572.88;;;14.78;70.50
52957;BME280;38819;42.692;23.342;2023-05-09T01:56:24;95566.63;;;14.78;70.71
52957;BME280;38819;42.692;23.342;2023-05-09T01:58:51;95572.44;;;14.85;70.70
52957;BME280;38819;42.692;23.342;2023-05-09T02:01:18;95572.44;;;14.85;70.75
52957;BME280;38819;42.692;23.342;2023-05-09T02:03:46;95571.56;;;14.76;71.22
52957;BME280;38819;42.692;23.342;2023-05-09T02:06:16;95560.06;;;14.79;70.44
52957;BME280;38819;42.692;23.342;2023-05-09T02:08:42;95565.69;;;14.82;70.06
52957;BME280;38819;42.692;23.342;2023-05-09T02:11:08;95572.06;;;14.78;69.95
52957;BME280;38819;42.692;23.342;2023-05-09T02:13:33;95569.22;;;14.83;69.14
52957;BME280;38819;42.692;23.342;2023-05-09T02:15:59;95571.75;;;14.79;69.32
52957;BME280;38819;42.692;23.342;2023-05-09T02:18:25;95565.66;;;14.74;69.54
52957;BME280;38819;42.692;23.342;2023-05-09T02:20:51;95572.88;;;14.78;69.59
52957;BME280;38819;42.692;23.342;2023-05-09T02:23:17;95564.81;;;14.73;69.94
52957;BME280;38819;42.692;23.342;2023-05-09T02:25:43;95566.13;;;14.76;69.75
52957;BME280;38819;42.692;23.342;2023-05-09T02:28:09;95561.00;;;14.74;69.97
52957;BME280;38819;42.692;23.342;2023-05-09T02:30:38;95560.69;;;14.76;69.81
52957;BME280;38819;42.692;23.342;2023-05-09T02:33:06;95570.66;;;14.80;70.13
52957;BME280;38819;42.692;23.342;2023-05-09T02:35:33;95566.00;;;14.81;69.76
52957;BME280;38819;42.692;23.342;2023-05-09T02:37:59;95565.91;;;14.95;69.65
52957;BME280;38819;42.692;23.342;2023-05-09T02:40:27;95576.09;;;14.80;69.68
52957;BME280;38819;42.692;23.342;2023-05-09T02:42:54;95564.81;;;14.73;69.66
52957;BME280;38819;42.692;23.342;2023-05-09T02:45:19;95570.59;;;14.72;69.91
52957;BME280;38819;42.692;23.342;2023-05-09T02:47:45;95565.16;;;14.72;70.20
52957;BME280;38819;42.692;23.342;2023-05-09T02:50:10;95566.69;;;14.64;70.58
52957;BME280;38819;42.692;23.342;2023-05-09T02:52:36;95566.91;;;14.54;70.96
52957;BME280;38819;42.692;23.342;2023-05-09T02:55:02;95572.66;;;14.52;71.43
52957;BME280;38819;42.692;23.342;2023-05-09T02:57:27;95563.72;;;14.52;71.53
52957;BME280;38819;42.692;23.342;2023-05-09T02:59:53;95576.13;;;14.44;72.01
52957;BME280;38819;42.692;23.342;2023-05-09T03:02:18;95567.09;;;14.35;72.47
52957;BME280;38819;42.692;23.342;2023-05-09T03:04:44;95565.19;;;14.35;72.38
52957;BME280;38819;42.692;23.342;2023-05-09T03:07:09;95574.25;;;14.31;72.48
52957;BME280;38819;42.692;23.342;2023-05-09T03:09:34;95578.25;;;14.33;72.83
52957;BME280;38819;42.692;23.342;2023-05-09T03:12:00;95581.31;;;14.32;72.97
52957;BME280;38819;42.692;23.342;2023-05-09T03:14:26;95590.75;;;14.34;73.07
52957;BME280;38819;42.692;23.342;2023-05-09T03:16:51;95588.50;;;14.36;73.09
52957;BME280;38819;42.692;23.342;2023-05-09T03:19:16;95582.34;;;14.22;73.91
52957;BME280;38819;42.692;23.342;2023-05-09T03:21:42;95587.97;;;14.25;73.70
52957;BME280;38819;42.692;23.342;2023-05-09T03:24:09;95612.22;;;14.22;74.39
52957;BME280;38819;42.692;23.342;2023-05-09T03:26:34;95611.50;;;14.16;74.82
52957;BME280;38819;42.692;23.342;2023-05-09T03:29:00;95613.31;;;14.21;74.90
52957;BME280;38819;42.692;23.342;2023-05-09T03:31:26;95606.84;;;14.31;74.62
52957;BME280;38819;42.692;23.342;2023-05-09T03:33:51;95621.72;;;14.33;74.60
52957;BME280;38819;42.692;23.342;2023-05-09T03:36:17;95614.91;;;14.36;73.89
52957;BME280;38819;42.692;23.342;2023-05-09T03:38:42;95621.41;;;14.49;73.30
52957;BME280;38819;42.692;23.342;2023-05-09T03:41:08;95619.00;;;14.47;72.84
52957;BME280;38819;42.692;23.342;2023-05-09T03:43:34;95627.81;;;14.53;72.73
52957;BME280;38819;42.692;23.342;2023-05-09T03:45:59;95619.78;;;14.48;73.26
52957;BME280;38819;42.692;23.342;2023-05-09T03:48:24;95625.88;;;14.31;73.58
52957;BME280;38819;42.692;23.342;2023-05-09T03:50:50;95624.88;;;14.26;74.12
52957;BME280;38819;42.692;23.342;2023-05-09T03:53:15;95617.13;;;14.20;74.29
52957;BME280;38819;42.692;23.342;2023-05-09T03:55:41;95615.44;;;14.24;74.08
52957;BME280;38819;42.692;23.342;2023-05-09T03:58:06;95621.72;;;14.33;74.03
52957;BME280;38819;42.692;23.342;2023-05-09T04:00:31;95627.75;;;14.44;73.74
52957;BME280;38819;42.692;23.342;2023-05-09T04:02:57;95626.22;;;14.52;73.57
52957;BME280;38819;42.692;23.342;2023-05-09T04:05:22;95619.84;;;14.56;73.37
52957;BME280;38819;42.692;23.342;2023-05-09T04:07:48;95619.53;;;14.58;73.25
52957;BME280;38819;42.692;23.342;2023-05-09T04:10:14;95627.13;;;14.61;72.94
52957;BME280;38819;42.692;23.342;2023-05-09T04:12:39;95625.06;;;14.67;72.38
52957;BME280;38819;42.692;23.342;2023-05-09T04:15:05;95631.09;;;14.77;71.84
52957;BME280;38819;42.692;23.342;2023-05-09T04:17:31;95629.03;;;14.83;71.73
52957;BME280;38819;42.692;23.342;2023-05-09T04:19:56;95637.28;;;14.92;71.60
52957;BME280;38819;42.692;23.342;2023-05-09T04:22:22;95627.97;;;14.93;71.08
52957;BME280;38819;42.692;23.342;2023-05-09T04:24:47;95632.00;;;14.95;70.93
52957;BME280;38819;42.692;23.342;2023-05-09T04:27:12;95642.28;;;14.98;70.76
52957;BME280;38819;42.692;23.342;2023-05-09T04:29:38;95636.50;;;15.00;71.03
52957;BME280;38819;42.692;23.342;2023-05-09T04:32:03;95629.22;;;14.87;71.11
52957;BME280;38819;42.692;23.342;2023-05-09T04:34:29;95630.53;;;14.89;71.19
52957;BME280;38819;42.692;23.342;2023-05-09T04:36:56;95636.94;;;14.71;71.16
52957;BME280;38819;42.692;23.342;2023-05-09T04:39:23;95635.00;;;14.49;71.91
52957;BME280;38819;42.692;23.342;2023-05-09T04:41:49;95637.94;;;14.38;72.38
52957;BME280;38819;42.692;23.342;2023-05-09T04:44:15;95639.53;;;14.39;72.17
52957;BME280;38819;42.692;23.342;2023-05-09T04:46:41;95642.53;;;14.52;71.96
52957;BME280;38819;42.692;23.342;2023-05-09T04:49:07;95635.72;;;14.40;72.19
52957;BME280;38819;42.692;23.342;2023-05-09T04:51:32;95641.09;;;14.54;71.87
52957;BME280;38819;42.692;23.342;2023-05-09T04:53:58;95640.72;;;14.61;71.71
52957;BME280;38819;42.692;23.342;2023-05-09T04:56:23;95636.97;;;14.57;71.63
52957;BME280;38819;42.692;23.342;2023-05-09T04:58:48;95639.78;;;14.66;71.72
52957;BME280;38819;42.692;23.342;2023-05-09T05:01:14;95641.50;;;14.61;71.60
52957;BME280;38819;42.692;23.342;2023-05-09T05:03:40;95636.81;;;14.39;72.04
52957;BME280;38819;42.692;23.342;2023-05-09T05:06:06;95634.81;;;14.45;72.31
52957;BME280;38819;42.692;23.342;2023-05-09T05:08:31;95632.28;;;14.49;71.95
52957;BME280;38819;42.692;23.342;2023-05-09T05:10:57;95635.38;;;14.56;72.06
52957;BME280;38819;42.692;23.342;2023-05-09T05:13:22;95633.56;;;14.51;71.54
52957;BME280;38819;42.692;23.342;2023-05-09T05:15:48;95633.66;;;14.60;71.34
52957;BME280;38819;42.692;23.342;2023-05-09T05:18:14;95640.09;;;14.64;71.15
52957;BME280;38819;42.692;23.342;2023-05-09T05:20:40;95629.53;;;14.62;70.11
52957;BME280;38819;42.692;23.342;2023-05-09T05:23:05;95629.66;;;14.80;69.79
52957;BME280;38819;42.692;23.342;2023-05-09T05:25:31;95625.16;;;14.75;69.56
52957;BME280;38819;42.692;23.342;2023-05-09T05:27:56;95629.56;;;14.85;69.31
52957;BME280;38819;42.692;23.342;2023-05-09T05:30:22;95636.00;;;14.98;69.12
52957;BME280;38819;42.692;23.342;2023-05-09T05:32:47;95630.75;;;15.01;68.23
52957;BME280;38819;42.692;23.342;2023-05-09T05:35:13;95637.81;;;15.03;68.07
52957;BME280;38819;42.692;23.342;2023-05-09T05:37:39;95641.63;;;15.01;67.97
52957;BME280;38819;42.692;23.342;2023-05-09T05:40:05;95640.03;;;15.00;68.29
52957;BME280;38819;42.692;23.342;2023-05-09T05:42:31;95643.69;;;15.18;68.24
52957;BME280;38819;42.692;23.342;2023-05-09T05:44:57;95645.63;;;15.27;67.68
52957;BME280;38819;42.692;23.342;2023-05-09T05:47:32;95642.72;;;15.23;67.49
52957;BME280;38819;42.692;23.342;2023-05-09T05:49:58;95648.56;;;15.08;67.81
52957;BME280;38819;42.692;23.342;2023-05-09T05:52:24;95642.31;;;15.07;67.91
52957;BME280;38819;42.692;23.342;2023-05-09T05:54:50;95641.19;;;15.08;67.88
52957;BME280;38819;42.692;23.342;2023-05-09T05:57:16;95646.63;;;15.08;67.29
52957;BME280;38819;42.692;23.342;2023-05-09T05:59:41;95646.72;;;14.94;67.69
52957;BME280;38819;42.692;23.342;2023-05-09T06:02:07;95645.19;;;15.02;67.32
52957;BME280;38819;42.692;23.342;2023-05-09T06:04:32;95643.69;;;14.96;66.60
52957;BME280;38819;42.692;23.342;2023-05-09T06:06:57;95645.91;;;14.71;66.55
52957;BME280;38819;42.692;23.342;2023-05-09T06:09:23;95640.88;;;14.64;67.53
52957;BME280;38819;42.692;23.342;2023-05-09T06:11:48;95641.38;;;14.67;67.44
52957;BME280;38819;42.692;23.342;2023-05-09T06:14:14;95650.97;;;14.64;66.82
52957;BME280;38819;42.692;23.342;2023-05-09T06:16:39;95647.84;;;14.57;67.10
52957;BME280;38819;42.692;23.342;2023-05-09T06:19:05;95645.84;;;14.62;67.45
52957;BME280;38819;42.692;23.342;2023-05-09T06:21:30;95642.31;;;14.62;67.31
52957;BME280;38819;42.692;23.342;2023-05-09T06:23:58;95644.44;;;14.65;67.60
52957;BME280;38819;42.692;23.342;2023-05-09T06:26:23;95641.06;;;14.68;67.64
52957;BME280;38819;42.692;23.342;2023-05-09T06:28:49;95643.81;;;14.54;66.46
52957;BME280;38819;42.692;23.342;2023-05-09T06:31:14;95649.88;;;14.51;67.49
52957;BME280;38819;42.692;23.342;2023-05-09T06:33:39;95649.66;;;14.61;67.53
52957;BME280;38819;42.692;23.342;2023-05-09T06:36:05;95654.31;;;14.61;66.35
52957;BME280;38819;42.692;23.342;2023-05-09T06:38:32;95653.09;;;14.67;66.25
52957;BME280;38819;42.692;23.342;2023-05-09T06:40:58;95644.56;;;14.82;66.43
52957;BME280;38819;42.692;23.342;2023-05-09T06:43:23;95642.00;;;14.86;66.33
52957;BME280;38819;42.692;23.342;2023-05-09T06:45:48;95636.44;;;14.91;65.40
52957;BME280;38819;42.692;23.342;2023-05-09T06:48:14;95646.84;;;14.89;64.99
52957;BME280;38819;42.692;23.342;2023-05-09T06:50:39;95644.44;;;14.88;64.44
52957;BME280;38819;42.692;23.342;2023-05-09T06:53:05;95643.19;;;14.94;65.62
52957;BME280;38819;42.692;23.342;2023-05-09T06:55:30;95642.75;;;15.00;65.05
52957;BME280;38819;42.692;23.342;2023-05-09T06:57:56;95643.00;;;15.13;64.58
52957;BME280;38819;42.692;23.342;2023-05-09T07:00:21;95632.59;;;15.15;64.78
52957;BME280;38819;42.692;23.342;2023-05-09T07:02:47;95645.31;;;15.28;65.39
52957;BME280;38819;42.692;23.342;2023-05-09T07:05:12;95642.69;;;15.46;64.60
52957;BME280;38819;42.692;23.342;2023-05-09T07:07:37;95639.56;;;15.61;63.98
52957;BME280;38819;42.692;23.342;2023-05-09T07:10:03;95634.84;;;15.76;63.25
52957;BME280;38819;42.692;23.342;2023-05-09T07:12:32;95631.50;;;15.79;63.00
52957;BME280;38819;42.692;23.342;2023-05-09T07:14:58;95637.56;;;15.76;62.50
52957;BME280;38819;42.692;23.342;2023-05-09T07:17:24;95630.97;;;15.77;62.80
52957;BME280;38819;42.692;23.342;2023-05-09T07:19:50;95631.69;;;15.60;62.91
52957;BME280;38819;42.692;23.342;2023-05-09T07:22:15;95642.72;;;15.54;62.61
52957;BME280;38819;42.692;23.342;2023-05-09T07:24:41;95643.22;;;15.56;62.87
52957;BME280;38819;42.692;23.342;2023-05-09T07:27:08;95648.56;;;15.70;62.61
52957;BME280;38819;42.692;23.342;2023-05-09T07:29:34;95643.91;;;15.71;63.12
52957;BME280;38819;42.692;23.342;2023-05-09T07:31:59;95637.91;;;15.83;63.06
52957;BME280;38819;42.692;23.342;2023-05-09T07:34:25;95637.75;;;15.88;62.63
52957;BME280;38819;42.692;23.342;2023-05-09T07:36:50;95637.31;;;16.03;62.54
52957;BME280;38819;42.692;23.342;2023-05-09T07:39:15;95639.38;;;15.98;62.64
52957;BME280;38819;42.692;23.342;2023-05-09T07:41:41;95645.53;;;15.72;61.89
52957;BME280;38819;42.692;23.342;2023-05-09T07:44:07;95645.44;;;15.86;62.03
52957;BME280;38819;42.692;23.342;2023-05-09T07:46:34;95652.94;;;15.80;62.59
52957;BME280;38819;42.692;23.342;2023-05-09T07:49:01;95647.38;;;15.54;61.87
52957;BME280;38819;42.692;23.342;2023-05-09T07:51:26;95637.25;;;15.46;62.35
52957;BME280;38819;42.692;23.342;2023-05-09T07:53:52;95652.22;;;15.34;62.88
52957;BME280;38819;42.692;23.342;2023-05-09T07:56:19;95646.13;;;15.29;63.03
52957;BME280;38819;42.692;23.342;2023-05-09T07:58:48;95652.16;;;15.17;63.60
52957;BME280;38819;42.692;23.342;2023-05-09T08:01:14;95647.69;;;15.21;63.39
52957;BME280;38819;42.692;23.342;2023-05-09T08:03:40;95638.28;;;15.05;63.25
52957;BME280;38819;42.692;23.342;2023-05-09T08:06:06;95641.84;;;15.05;63.20
52957;BME280;38819;42.692;23.342;2023-05-09T08:08:32;95637.59;;;15.22;63.32
52957;BME280;38819;42.692;23.342;2023-05-09T08:10:57;95641.66;;;15.33;63.33
52957;BME280;38819;42.692;23.342;2023-05-09T08:13:23;95638.63;;;15.34;63.42
52957;BME280;38819;42.692;23.342;2023-05-09T08:15:49;95641.97;;;15.31;63.50
52957;BME280;38819;42.692;23.342;2023-05-09T08:18:15;95646.94;;;15.29;63.36
52957;BME280;38819;42.692;23.342;2023-05-09T08:20:40;95644.59;;;15.14;63.80
52957;BME280;38819;42.692;23.342;2023-05-09T08:23:06;95643.03;;;15.22;63.25
52957;BME280;38819;42.692;23.342;2023-05-09T08:25:32;95638.59;;;15.26;63.75
52957;BME280;38819;42.692;23.342;2023-05-09T08:27:58;95648.69;;;15.25;62.80
52957;BME280;38819;42.692;23.342;2023-05-09T08:30:23;95645.09;;;15.16;63.78
52957;BME280;38819;42.692;23.342;2023-05-09T08:32:49;95640.13;;;15.18;64.21
52957;BME280;38819;42.692;23.342;2023-05-09T08:35:14;95645.75;;;15.22;64.03
52957;BME280;38819;42.692;23.342;2023-05-09T08:37:39;95637.72;;;15.16;64.28
52957;BME280;38819;42.692;23.342;2023-05-09T08:40:05;95640.81;;;15.24;64.10
52957;BME280;38819;42.692;23.342;2023-05-09T08:42:35;95645.56;;;15.18;63.75
52957;BME280;38819;42.692;23.342;2023-05-09T08:45:12;95642.81;;;15.09;64.30
52957;BME280;38819;42.692;23.342;2023-05-09T08:47:40;95650.88;;;14.92;65.11
52957;BME280;38819;42.692;23.342;2023-05-09T08:50:07;95633.13;;;14.94;64.94
52957;BME280;38819;42.692;23.342;2023-05-09T08:52:33;95644.25;;;14.84;64.76
52957;BME280;38819;42.692;23.342;2023-05-09T08:55:00;95640.97;;;14.96;64.22
52957;BME280;38819;42.692;23.342;2023-05-09T08:57:26;95646.72;;;14.58;63.30
52957;BME280;38819;42.692;23.342;2023-05-09T08:59:54;95624.88;;;14.63;63.67
52957;BME280;38819;42.692;23.342;2023-05-09T09:02:20;95629.56;;;14.49;63.97
52957;BME280;38819;42.692;23.342;2023-05-09T09:04:46;95641.34;;;14.44;64.52
52957;BME280;38819;42.692;23.342;2023-05-09T09:07:12;95637.97;;;14.24;64.75
52957;BME280;38819;42.692;23.342;2023-05-09T09:09:43;95638.25;;;14.23;64.33
52957;BME280;38819;42.692;23.342;2023-05-09T09:12:10;95637.78;;;14.21;64.38
52957;BME280;38819;42.692;23.342;2023-05-09T09:14:41;95630.41;;;14.35;64.14
52957;BME280;38819;42.692;23.342;2023-05-09T09:17:11;95635.53;;;14.37;64.14
52957;BME280;38819;42.692;23.342;2023-05-09T09:19:39;95633.78;;;14.41;64.13
52957;BME280;38819;42.692;23.342;2023-05-09T09:22:07;95628.72;;;14.48;63.43
52957;BME280;38819;42.692;23.342;2023-05-09T09:24:35;95640.78;;;14.56;63.46
52957;BME280;38819;42.692;23.342;2023-05-09T09:27:04;95638.75;;;14.39;62.22
52957;BME280;38819;42.692;23.342;2023-05-09T09:29:31;95635.94;;;14.30;62.62
52957;BME280;38819;42.692;23.342;2023-05-09T09:32:01;95636.09;;;14.48;64.27
52957;BME280;38819;42.692;23.342;2023-05-09T09:34:27;95639.53;;;14.76;64.59
52957;BME280;38819;42.692;23.342;2023-05-09T09:36:52;95631.88;;;15.00;64.28
52957;BME280;38819;42.692;23.342;2023-05-09T09:39:17;95631.97;;;15.18;63.02
52957;BME280;38819;42.692;23.342;2023-05-09T09:41:43;95631.69;;;15.28;63.44
52957;BME280;38819;42.692;23.342;2023-05-09T09:44:20;95635.00;;;15.48;63.63
52957;BME280;38819;42.692;23.342;2023-05-09T09:46:47;95627.63;;;15.80;62.63
52957;BME280;38819;42.692;23.342;2023-05-09T09:49:14;95628.19;;;16.08;62.39
52957;BME280;38819;42.692;23.342;2023-05-09T09:51:40;95631.91;;;16.21;60.98
52957;BME280;38819;42.692;23.342;2023-05-09T09:54:11;95636.25;;;16.39;60.54
52957;BME280;38819;42.692;23.342;2023-05-09T09:56:38;95643.50;;;16.44;59.48
52957;BME280;38819;42.692;23.342;2023-05-09T09:59:23;95640.09;;;16.29;60.33
52957;BME280;38819;42.692;23.342;2023-05-09T10:04:47;95639.09;;;16.08;60.29
52957;BME280;38819;42.692;23.342;2023-05-09T10:07:12;95625.66;;;16.29;60.66
52957;BME280;38819;42.692;23.342;2023-05-09T10:09:37;95622.63;;;16.39;59.90
52957;BME280;38819;42.692;23.342;2023-05-09T10:12:04;95628.56;;;16.59;59.57
52957;BME280;38819;42.692;23.342;2023-05-09T10:14:32;95626.47;;;16.82;58.97
52957;BME280;38819;42.692;23.342;2023-05-09T10:17:00;95618.28;;;16.82;58.42
52957;BME280;38819;42.692;23.342;2023-05-09T10:19:27;95621.97;;;16.60;58.88
52957;BME280;38819;42.692;23.342;2023-05-09T10:22:01;95617.66;;;16.67;58.83
52957;BME280;38819;42.692;23.342;2023-05-09T10:27:05;95623.72;;;16.82;58.44
52957;BME280;38819;42.692;23.342;2023-05-09T10:29:56;95615.41;;;16.96;58.36
52957;BME280;38819;42.692;23.342;2023-05-09T10:32:22;95619.91;;;17.09;58.85
52957;BME280;38819;42.692;23.342;2023-05-09T10:34:53;95616.84;;;17.02;58.49
52957;BME280;38819;42.692;23.342;2023-05-09T10:37:23;95616.81;;;17.19;58.66
52957;BME280;38819;42.692;23.342;2023-05-09T10:39:49;95619.97;;;17.30;59.02
52957;BME280;38819;42.692;23.342;2023-05-09T10:42:19;95616.56;;;17.42;57.96
52957;BME280;38819;42.692;23.342;2023-05-09T10:44:48;95620.09;;;17.51;57.11
52957;BME280;38819;42.692;23.342;2023-05-09T10:47:14;95623.28;;;17.53;56.76
52957;BME280;38819;42.692;23.342;2023-05-09T10:49:40;95617.34;;;17.51;56.55
52957;BME280;38819;42.692;23.342;2023-05-09T10:52:06;95616.91;;;17.40;56.61
52957;BME280;38819;42.692;23.342;2023-05-09T10:54:35;95621.91;;;17.30;57.38
52957;BME280;38819;42.692;23.342;2023-05-09T10:57:00;95620.81;;;17.31;57.65
52957;BME280;38819;42.692;23.342;2023-05-09T10:59:42;95631.44;;;17.15;57.60
52957;BME280;38819;42.692;23.342;2023-05-09T11:02:18;95618.13;;;17.04;57.71
52957;BME280;38819;42.692;23.342;2023-05-09T11:04:44;95629.56;;;16.89;58.15
52957;BME280;38819;42.692;23.342;2023-05-09T11:07:24;95620.38;;;16.76;59.06
52957;BME280;38819;42.692;23.342;2023-05-09T11:10:36;95623.28;;;16.71;59.85
52957;BME280;38819;42.692;23.342;2023-05-09T11:12:59;95626.66;;;16.85;59.12
52957;BME280;38819;42.692;23.342;2023-05-09T11:15:25;95628.41;;;17.08;59.00
52957;BME280;38819;42.692;23.342;2023-05-09T11:18:08;95629.66;;;17.10;58.69
52957;BME280;38819;42.692;23.342;2023-05-09T11:20:35;95625.53;;;16.87;58.63
52957;BME280;38819;42.692;23.342;2023-05-09T11:23:07;95617.50;;;16.73;58.67
52957;BME280;38819;42.692;23.342;2023-05-09T11:25:34;95631.28;;;16.76;58.98
52957;BME280;38819;42.692;23.342;2023-05-09T11:28:00;95632.91;;;16.77;59.24
52957;BME280;38819;42.692;23.342;2023-05-09T11:30:38;95632.56;;;16.70;58.48
52957;BME280;38819;42.692;23.342;2023-05-09T11:33:21;95627.59;;;16.81;59.12
52957;BME280;38819;42.692;23.342;2023-05-09T11:39:07;95624.84;;;17.07;58.61
52957;BME280;38819;42.692;23.342;2023-05-09T11:41:46;95625.19;;;17.14;57.56
52957;BME280;38819;42.692;23.342;2023-05-09T11:44:17;95624.06;;;17.07;57.64
52957;BME280;38819;42.692;23.342;2023-05-09T11:46:47;95622.28;;;17.02;57.99
52957;BME280;38819;42.692;23.342;2023-05-09T11:49:13;95621.34;;;16.98;58.03
52957;BME280;38819;42.692;23.342;2023-05-09T11:51:39;95626.13;;;17.18;57.98
52957;BME280;38819;42.692;23.342;2023-05-09T11:54:06;95620.03;;;17.13;57.48
52957;BME280;38819;42.692;23.342;2023-05-09T11:56:34;95627.16;;;16.88;57.89
52957;BME280;38819;42.692;23.342;2023-05-09T11:59:00;95617.50;;;16.90;58.45
52957;BME280;38819;42.692;23.342;2023-05-09T12:01:28;95612.38;;;16.97;58.15
52957;BME280;38819;42.692;23.342;2023-05-09T12:03:53;95617.16;;;17.00;57.70
52957;BME280;38819;42.692;23.342;2023-05-09T12:06:19;95618.31;;;16.99;57.22
52957;BME280;38819;42.692;23.342;2023-05-09T12:08:45;95623.25;;;17.15;57.47
52957;BME280;38819;42.692;23.342;2023-05-09T12:11:12;95620.19;;;17.16;57.58
52957;BME280;38819;42.692;23.342;2023-05-09T12:13:47;95608.34;;;16.95;57.69
52957;BME280;38819;42.692;23.342;2023-05-09T12:16:14;95627.94;;;16.79;57.92
52957;BME280;38819;42.692;23.342;2023-05-09T12:18:48;95620.72;;;16.66;58.37
52957;BME280;38819;42.692;23.342;2023-05-09T12:21:14;95611.88;;;16.52;58.81
52957;BME280;38819;42.692;23.342;2023-05-09T12:23:40;95619.59;;;16.49;59.28
52957;BME280;38819;42.692;23.342;2023-05-09T12:26:06;95616.03;;;16.32;59.21
52957;BME280;38819;42.692;23.342;2023-05-09T12:28:31;95618.91;;;16.26;59.61
52957;BME280;38819;42.692;23.342;2023-05-09T12:30:57;95621.47;;;16.23;59.50
52957;BME280;38819;42.692;23.342;2023-05-09T12:33:23;95608.97;;;16.22;59.72
52957;BME280;38819;42.692;23.342;2023-05-09T12:36:01;95616.69;;;16.37;59.61
52957;BME280;38819;42.692;23.342;2023-05-09T12:38:27;95621.69;;;16.44;59.28
52957;BME280;38819;42.692;23.342;2023-05-09T12:41:09;95627.09;;;16.26;59.32
52957;BME280;38819;42.692;23.342;2023-05-09T12:43:37;95622.59;;;16.22;59.70
52957;BME280;38819;42.692;23.342;2023-05-09T12:46:03;95620.97;;;16.12;59.85
52957;BME280;38819;42.692;23.342;2023-05-09T12:48:34;95618.69;;;15.97;60.20
52957;BME280;38819;42.692;23.342;2023-05-09T12:51:04;95611.16;;;15.85;60.79
52957;BME280;38819;42.692;23.342;2023-05-09T12:53:30;95612.34;;;15.70;61.04
52957;BME280;38819;42.692;23.342;2023-05-09T12:56:11;95605.25;;;15.60;61.45
52957;BME280;38819;42.692;23.342;2023-05-09T12:58:38;95604.63;;;15.63;61.65
52957;BME280;38819;42.692;23.342;2023-05-09T13:01:04;95604.31;;;15.56;61.59
52957;BME280;38819;42.692;23.342;2023-05-09T13:03:30;95608.88;;;15.47;62.37
52957;BME280;38819;42.692;23.342;2023-05-09T13:06:03;95604.63;;;15.54;62.32
52957;BME280;38819;42.692;23.342;2023-05-09T13:08:29;95601.44;;;15.70;61.97
52957;BME280;38819;42.692;23.342;2023-05-09T13:10:56;95600.41;;;15.80;61.48